Time;durP1;ratioP1;P1;durP2;ratioP2;P2;SDS_P1;SDS_P2;PMS_P1;PMS_P2;Temp;Humidity;BMP_temperature;BMP_pressure;BME280_temperature;BME280_humidity;BME280_pressure;Samples;Min_cycle;Max_cycle;Signal;HPM_P1;HPM_P2
2020/12/23 00:01:21;;;;;;;7.90;1.50;;;8.10;99.90;;;;;;4957933;28;20034;-75
2020/12/23 00:03:47;;;;;;;16.13;1.50;;;8.10;99.90;;;;;;4975149;28;20034;-75
2020/12/23 00:06:13;;;;;;;6.07;1.35;;;8.10;99.90;;;;;;4975667;28;20164;-75
2020/12/23 00:08:38;;;;;;;10.35;1.60;;;8.10;99.90;;;;;;4975315;28;20501;-75
2020/12/23 00:11:04;;;;;;;8.13;1.75;;;8.10;99.90;;;;;;4979262;28;20104;-75
2020/12/23 00:13:31;;;;;;;10.25;1.50;;;8.10;99.90;;;;;;4970840;28;20066;-75
2020/12/23 00:15:56;;;;;;;9.60;1.30;;;8.10;99.90;;;;;;4979084;28;20026;-75
2020/12/23 00:18:23;;;;;;;8.82;1.40;;;8.10;99.90;;;;;;4976953;28;20620;-75
2020/12/23 00:20:49;;;;;;;9.00;1.60;;;8.10;99.90;;;;;;4978833;28;20031;-75
2020/12/23 00:23:14;;;;;;;9.75;1.70;;;8.10;99.90;;;;;;4971893;28;20057;-75
2020/12/23 00:25:40;;;;;;;5.22;1.10;;;8.00;99.90;;;;;;4978001;28;20054;-75
2020/12/23 00:28:06;;;;;;;8.45;1.40;;;8.00;99.90;;;;;;4971963;28;20034;-75
2020/12/23 00:30:31;;;;;;;6.05;1.55;;;8.10;99.90;;;;;;4978462;28;20486;-75
2020/12/23 00:32:57;;;;;;;10.95;1.48;;;8.00;99.90;;;;;;4961062;28;20366;-75
2020/12/23 00:35:23;;;;;;;10.63;1.85;;;8.10;99.90;;;;;;4976649;28;20042;-75
2020/12/23 00:37:48;;;;;;;11.48;1.40;;;8.20;99.90;;;;;;4972325;28;20688;-75
2020/12/23 00:40:14;;;;;;;9.38;1.50;;;8.30;99.90;;;;;;4971438;28;20072;-75
2020/12/23 00:42:40;;;;;;;12.20;1.60;;;8.20;99.90;;;;;;4970834;28;20046;-75
2020/12/23 00:45:05;;;;;;;8.40;1.65;;;8.20;99.90;;;;;;4960687;28;20038;-75
2020/12/23 00:47:31;;;;;;;9.88;1.17;;;8.20;99.90;;;;;;4971635;28;20030;-75
2020/12/23 00:49:57;;;;;;;11.00;1.30;;;8.10;99.90;;;;;;4960873;28;20038;-75
2020/12/23 00:52:23;;;;;;;14.85;1.40;;;8.10;99.90;;;;;;4962031;28;20034;-75
2020/12/23 00:54:49;;;;;;;8.57;1.63;;;8.00;99.90;;;;;;4977807;28;20650;-74
2020/12/23 00:57:22;;;;;;;7.00;1.25;;;8.00;99.90;;;;;;4959211;28;20038;-75
2020/12/23 00:59:48;;;;;;;8.07;1.42;;;8.00;99.90;;;;;;4974838;28;20093;-75
2020/12/23 01:02:13;;;;;;;7.40;1.20;;;8.00;99.90;;;;;;4967801;28;20030;-76
2020/12/23 01:04:39;;;;;;;9.93;1.30;;;8.00;99.90;;;;;;4976256;28;20033;-76
2020/12/23 01:07:04;;;;;;;9.20;1.42;;;8.10;99.90;;;;;;4977587;28;20034;-76
2020/12/23 01:09:30;;;;;;;6.15;1.42;;;8.10;99.90;;;;;;4957829;28;20036;-76
2020/12/23 01:11:56;;;;;;;12.18;2.05;;;8.00;99.90;;;;;;4959714;28;20069;-76
2020/12/23 01:14:21;;;;;;;3.47;1.05;;;8.00;99.90;;;;;;4970093;28;20061;-76
2020/12/23 01:16:47;;;;;;;8.75;1.65;;;8.00;99.90;;;;;;4967437;28;20035;-75
2020/12/23 01:19:13;;;;;;;10.30;1.95;;;7.90;99.90;;;;;;4959518;28;20130;-75
2020/12/23 01:21:39;;;;;;;8.93;1.60;;;7.90;99.90;;;;;;4975529;28;20130;-75
2020/12/23 01:24:05;;;;;;;12.52;1.20;;;7.90;99.90;;;;;;4977170;28;20053;-75
2020/12/23 01:26:30;;;;;;;13.13;1.60;;;7.90;99.90;;;;;;4977329;28;20772;-75
2020/12/23 01:28:56;;;;;;;15.68;1.80;;;7.80;99.90;;;;;;4977617;28;20030;-74
2020/12/23 01:31:22;;;;;;;5.00;1.33;;;7.80;99.90;;;;;;4951384;28;20039;-74
2020/12/23 01:33:47;;;;;;;13.00;2.22;;;7.80;99.90;;;;;;4967894;28;20042;-75
2020/12/23 01:36:13;;;;;;;12.10;1.50;;;7.80;99.90;;;;;;4959483;28;20047;-74
2020/12/23 01:38:39;;;;;;;9.07;1.45;;;7.80;99.90;;;;;;4959260;28;20043;-74
2020/12/23 01:41:06;;;;;;;7.50;1.40;;;7.80;99.90;;;;;;4977564;28;20897;-73
2020/12/23 01:43:32;;;;;;;9.38;1.67;;;7.80;99.90;;;;;;4976916;28;20041;-73
2020/12/23 01:45:59;;;;;;;11.70;1.60;;;7.70;99.90;;;;;;4959034;28;20754;-76
2020/12/23 01:48:30;;;;;;;7.38;1.45;;;7.70;99.90;;;;;;4976832;28;20523;-74
2020/12/23 01:50:59;;;;;;;12.82;1.55;;;7.70;99.90;;;;;;4977320;28;20038;-74
2020/12/23 01:53:26;;;;;;;12.07;1.20;;;7.70;99.90;;;;;;4974403;28;20114;-75
2020/12/23 01:55:52;;;;;;;12.80;1.52;;;7.80;99.90;;;;;;4977971;28;20042;-75
2020/12/23 01:58:17;;;;;;;5.07;1.30;;;7.70;99.90;;;;;;4966410;28;20879;-76
2020/12/23 02:00:43;;;;;;;13.48;1.60;;;7.70;99.90;;;;;;4960883;28;20038;-75
2020/12/23 02:03:10;;;;;;;8.82;1.45;;;7.70;99.90;;;;;;4977325;28;20185;-75
2020/12/23 02:05:37;;;;;;;5.88;1.00;;;7.70;99.90;;;;;;4959477;28;20259;-76
2020/12/23 02:08:04;;;;;;;7.10;1.15;;;7.70;99.90;;;;;;4954842;28;20046;-76
2020/12/23 02:10:31;;;;;;;9.25;1.60;;;7.70;99.90;;;;;;4977588;28;20056;-76
2020/12/23 02:13:00;;;;;;;9.05;1.63;;;7.60;99.90;;;;;;4956849;28;20076;-76
2020/12/23 02:15:26;;;;;;;16.90;2.33;;;7.60;99.90;;;;;;4975917;28;20042;-76
2020/12/23 02:17:52;;;;;;;11.00;1.75;;;7.60;99.90;;;;;;4977834;28;20060;-76
2020/12/23 02:20:18;;;;;;;11.05;1.58;;;7.60;99.90;;;;;;4977521;28;20038;-76
2020/12/23 02:22:48;;;;;;;11.65;1.23;;;7.60;99.90;;;;;;4976890;28;20066;-76
2020/12/23 02:25:14;;;;;;;13.38;1.60;;;7.60;99.90;;;;;;4972616;28;20041;-75
2020/12/23 02:27:41;;;;;;;8.27;1.58;;;7.60;99.90;;;;;;4957905;28;20388;-75
2020/12/23 02:30:08;;;;;;;12.15;1.70;;;7.60;99.90;;;;;;4973831;28;20539;-76
2020/12/23 02:32:34;;;;;;;13.07;1.80;;;7.60;99.90;;;;;;4976597;28;20823;-76
2020/12/23 02:35:00;;;;;;;9.45;1.38;;;7.60;99.90;;;;;;4977437;28;20045;-75
2020/12/23 02:37:26;;;;;;;16.60;1.70;;;7.60;99.90;;;;;;4974351;28;20692;-75
2020/12/23 02:39:54;;;;;;;12.75;1.83;;;7.50;99.90;;;;;;4973887;28;20065;-75
2020/12/23 02:42:21;;;;;;;8.13;1.60;;;7.50;99.90;;;;;;4973750;28;20026;-76
2020/12/23 02:44:49;;;;;;;8.90;1.38;;;7.50;99.90;;;;;;4974074;28;20041;-75
2020/12/23 02:47:17;;;;;;;14.35;2.45;;;7.50;99.90;;;;;;4970260;28;20048;-75
2020/12/23 02:49:43;;;;;;;16.33;1.77;;;7.50;99.90;;;;;;4960641;28;20041;-75
2020/12/23 02:52:10;;;;;;;11.55;1.70;;;7.50;99.90;;;;;;4965087;28;20113;-75
2020/12/23 02:54:36;;;;;;;12.50;1.95;;;7.50;99.90;;;;;;4971619;28;20086;-75
2020/12/23 02:57:03;;;;;;;12.77;1.88;;;7.50;99.90;;;;;;4970986;28;20093;-76
2020/12/23 02:59:29;;;;;;;14.52;1.95;;;7.60;99.90;;;;;;4967730;28;20045;-76
2020/12/23 03:01:54;;;;;;;13.35;2.63;;;7.50;99.90;;;;;;4959364;28;20487;-76
2020/12/23 03:04:20;;;;;;;22.08;3.17;;;7.50;99.90;;;;;;4944140;28;20697;-76
2020/12/23 03:06:46;;;;;;;12.50;3.05;;;7.50;99.90;;;;;;4961504;28;20669;-76
2020/12/23 03:09:12;;;;;;;8.07;1.92;;;7.40;99.90;;;;;;4975374;28;20177;-76
2020/12/23 03:11:41;;;;;;;16.10;2.75;;;7.40;99.90;;;;;;4957960;28;20058;-76
2020/12/23 03:14:09;;;;;;;12.30;1.70;;;7.40;99.90;;;;;;4975684;28;20483;-76
2020/12/23 03:16:35;;;;;;;14.88;2.30;;;7.40;99.90;;;;;;4973586;28;20113;-75
2020/12/23 03:19:01;;;;;;;6.68;1.50;;;7.40;99.90;;;;;;4965801;28;20027;-75
2020/12/23 03:21:27;;;;;;;11.90;2.20;;;7.40;99.90;;;;;;4959725;28;20058;-75
2020/12/23 03:23:53;;;;;;;10.88;1.60;;;7.50;99.90;;;;;;4976824;28;20139;-75
2020/12/23 03:26:19;;;;;;;13.30;1.80;;;7.40;99.90;;;;;;4969767;28;20406;-75
2020/12/23 03:28:45;;;;;;;10.60;2.05;;;7.50;99.90;;;;;;4974208;28;20038;-75
2020/12/23 03:31:11;;;;;;;10.65;1.83;;;7.50;99.90;;;;;;4959084;28;20096;-75
2020/12/23 03:33:37;;;;;;;14.35;2.25;;;7.50;99.90;;;;;;4959201;28;20027;-76
2020/12/23 03:36:03;;;;;;;14.50;1.65;;;7.50;99.90;;;;;;4955974;28;20085;-75
2020/12/23 03:38:29;;;;;;;10.07;1.75;;;7.50;99.90;;;;;;4976815;28;20046;-75
2020/12/23 03:40:55;;;;;;;11.10;1.70;;;7.50;99.90;;;;;;4975443;28;20058;-75
2020/12/23 03:43:22;;;;;;;15.80;1.60;;;7.50;99.90;;;;;;4976994;28;20347;-75
2020/12/23 03:45:48;;;;;;;7.63;1.33;;;7.50;99.90;;;;;;4962827;28;20038;-75
2020/12/23 03:48:14;;;;;;;15.95;1.63;;;7.50;99.90;;;;;;4978677;28;20085;-75
2020/12/23 03:50:40;;;;;;;7.65;1.38;;;7.50;99.90;;;;;;4979068;28;20656;-75
2020/12/23 03:53:06;;;;;;;8.98;1.50;;;7.50;99.90;;;;;;4964749;28;20038;-75
2020/12/23 03:55:32;;;;;;;11.88;1.60;;;7.50;99.90;;;;;;4978736;28;20410;-75
2020/12/23 03:57:57;;;;;;;9.35;1.30;;;7.50;99.90;;;;;;4962153;28;20081;-75
2020/12/23 04:00:23;;;;;;;7.38;1.58;;;7.50;99.90;;;;;;4979569;28;20041;-75
2020/12/23 04:02:49;;;;;;;12.02;2.00;;;7.50;99.90;;;;;;4979461;28;20133;-75
2020/12/23 04:05:15;;;;;;;12.23;1.60;;;7.50;99.90;;;;;;4978908;28;20065;-74
2020/12/23 04:07:40;;;;;;;16.52;1.90;;;7.50;99.90;;;;;;4976425;28;20027;-75
2020/12/23 04:10:07;;;;;;;12.23;1.88;;;7.50;99.90;;;;;;4969999;28;20660;-75
2020/12/23 04:12:35;;;;;;;13.07;2.05;;;7.40;99.90;;;;;;4979233;28;20042;-75
2020/12/23 04:15:06;;;;;;;11.30;2.58;;;7.40;99.90;;;;;;4980832;28;20046;-75
2020/12/23 04:17:32;;;;;;;12.25;2.13;;;7.40;99.90;;;;;;4977791;28;20552;-75
2020/12/23 04:19:58;;;;;;;14.50;1.63;;;7.40;99.90;;;;;;4961885;28;20072;-75
2020/12/23 04:22:28;;;;;;;18.85;1.98;;;7.40;99.90;;;;;;4971132;28;20102;-75
2020/12/23 04:24:58;;;;;;;9.18;1.60;;;7.40;99.90;;;;;;4980801;28;20792;-75
2020/12/23 04:27:25;;;;;;;13.38;1.70;;;7.40;99.90;;;;;;4953626;28;20782;-74
2020/12/23 04:29:50;;;;;;;10.93;1.92;;;7.40;99.90;;;;;;4980316;28;20045;-75
2020/12/23 04:32:16;;;;;;;11.32;2.13;;;7.40;99.90;;;;;;4978501;28;20046;-75
2020/12/23 04:34:42;;;;;;;9.45;1.60;;;7.40;99.90;;;;;;4977679;28;20642;-75
2020/12/23 04:37:08;;;;;;;12.95;1.85;;;7.30;99.90;;;;;;4959923;28;20038;-75
2020/12/23 04:39:34;;;;;;;9.85;1.77;;;7.30;99.90;;;;;;4959560;28;20105;-74
2020/12/23 04:42:00;;;;;;;9.90;2.15;;;7.30;99.90;;;;;;4961358;28;20044;-74
2020/12/23 04:44:26;;;;;;;11.57;1.60;;;7.30;99.90;;;;;;4976496;28;20026;-74
2020/12/23 04:46:51;;;;;;;17.00;2.00;;;7.30;99.90;;;;;;4972010;28;20113;-73
2020/12/23 04:49:21;;;;;;;15.25;1.67;;;7.40;99.90;;;;;;4978096;28;20125;-73
2020/12/23 04:51:53;;;;;;;11.38;1.38;;;7.30;99.90;;;;;;4977428;28;20054;-74
2020/12/23 04:54:19;;;;;;;6.43;1.60;;;7.40;99.90;;;;;;4977129;28;20041;-74
2020/12/23 04:56:45;;;;;;;15.48;2.40;;;7.40;99.90;;;;;;4976485;28;20136;-74
2020/12/23 04:59:11;;;;;;;8.52;1.55;;;7.30;99.90;;;;;;4977792;28;20064;-73
2020/12/23 05:01:37;;;;;;;11.70;1.50;;;7.30;99.90;;;;;;4976713;28;20190;-71
2020/12/23 05:04:02;;;;;;;18.25;2.22;;;7.30;99.90;;;;;;4977827;28;20044;-71
2020/12/23 05:06:28;;;;;;;8.98;1.42;;;7.30;99.90;;;;;;4975916;28;20048;-71
2020/12/23 05:08:54;;;;;;;10.23;2.00;;;7.30;99.90;;;;;;4960385;28;20091;-73
2020/12/23 05:11:19;;;;;;;14.75;2.35;;;7.30;99.90;;;;;;4959916;28;20041;-73
2020/12/23 05:13:45;;;;;;;15.80;1.58;;;7.30;99.90;;;;;;4976876;28;20478;-73
2020/12/23 05:16:20;;;;;;;11.55;1.55;;;7.30;99.90;;;;;;4977285;28;20034;-73
2020/12/23 05:18:45;;;;;;;14.07;1.75;;;7.40;99.90;;;;;;4977154;28;20034;-73
2020/12/23 05:21:14;;;;;;;14.98;1.70;;;7.40;99.90;;;;;;4953681;28;20687;-74
2020/12/23 05:23:45;;;;;;;15.60;1.67;;;7.40;99.90;;;;;;4963129;28;20033;-73
2020/12/23 05:26:12;;;;;;;9.45;1.60;;;7.40;99.90;;;;;;4970636;28;20314;-71
2020/12/23 05:28:38;;;;;;;11.60;1.67;;;7.30;99.90;;;;;;4976886;28;20033;-69
2020/12/23 05:31:06;;;;;;;12.40;1.73;;;7.30;99.90;;;;;;4972112;28;20039;-71
2020/12/23 05:33:36;;;;;;;19.85;2.10;;;7.30;99.90;;;;;;4967827;28;20224;-71
2020/12/23 05:36:13;;;;;;;12.82;1.88;;;7.20;99.90;;;;;;4959383;28;20042;-71
2020/12/23 05:38:39;;;;;;;13.32;1.77;;;7.20;99.90;;;;;;4947366;28;20062;-71
2020/12/23 05:41:07;;;;;;;14.13;1.85;;;7.20;99.90;;;;;;4953526;28;20030;-71
2020/12/23 05:43:33;;;;;;;12.27;2.10;;;7.20;99.90;;;;;;4958293;28;20088;-73
2020/12/23 05:46:11;;;;;;;15.43;1.80;;;7.20;99.90;;;;;;4979069;28;20034;-75
2020/12/23 05:48:39;;;;;;;12.00;2.00;;;7.20;99.90;;;;;;4979030;28;20124;-73
2020/12/23 05:51:07;;;;;;;16.15;2.65;;;7.20;99.90;;;;;;4977807;28;20477;-69
2020/12/23 05:53:34;;;;;;;16.75;2.03;;;7.20;99.90;;;;;;4977551;28;20041;-72
2020/12/23 05:56:01;;;;;;;17.77;2.20;;;7.20;99.90;;;;;;4977271;28;20048;-72
2020/12/23 05:58:32;;;;;;;20.85;1.83;;;7.20;99.90;;;;;;4976376;28;20093;-72
2020/12/23 06:01:06;;;;;;;22.73;2.33;;;7.30;99.90;;;;;;4955517;28;20038;-70
2020/12/23 06:03:45;;;;;;;18.75;2.53;;;7.20;99.90;;;;;;4961028;28;20403;-69
2020/12/23 06:06:12;;;;;;;12.52;1.70;;;7.20;99.90;;;;;;4973316;28;20026;-70
2020/12/23 06:08:39;;;;;;;16.95;2.10;;;7.10;99.90;;;;;;4970400;28;20031;-70
2020/12/23 06:11:17;;;;;;;12.57;1.90;;;7.10;99.90;;;;;;4959736;28;20154;-70
2020/12/23 06:14:05;;;;;;;16.63;2.03;;;7.10;99.90;;;;;;4970548;28;20039;-72
2020/12/23 06:16:35;;;;;;;13.10;1.83;;;7.10;99.90;;;;;;4958846;28;20030;-72
2020/12/23 06:19:09;;;;;;;13.73;2.38;;;7.00;99.90;;;;;;4979459;28;20111;-71
2020/12/23 06:21:35;;;;;;;17.90;2.08;;;7.00;99.90;;;;;;4979430;28;20030;-72
2020/12/23 06:24:11;;;;;;;18.08;2.20;;;6.90;99.90;;;;;;4978282;28;20430;-71
2020/12/23 06:26:39;;;;;;;26.63;2.80;;;6.80;99.90;;;;;;4972963;28;20026;-71
2020/12/23 06:29:11;;;;;;;21.67;2.53;;;6.80;99.90;;;;;;4975852;28;20416;-72
2020/12/23 06:31:53;;;;;;;19.00;2.65;;;6.80;99.90;;;;;;4964921;28;20604;-71
2020/12/23 06:34:19;;;;;;;26.08;2.85;;;6.80;99.90;;;;;;4973343;28;20911;-71
2020/12/23 06:36:46;;;;;;;15.63;3.03;;;6.80;99.90;;;;;;4975889;28;20046;-71
2020/12/23 06:39:24;;;;;;;26.15;4.15;;;6.70;99.90;;;;;;4978024;28;20046;-72
2020/12/23 06:41:52;;;;;;;23.10;3.63;;;6.70;99.90;;;;;;4978321;28;20034;-72
2020/12/23 06:44:18;;;;;;;21.00;2.80;;;6.70;99.90;;;;;;4971462;28;20039;-71
2020/12/23 06:46:58;;;;;;;23.02;3.08;;;6.70;99.90;;;;;;4979411;28;20030;-71
2020/12/23 06:49:42;;;;;;;18.58;3.42;;;6.60;99.90;;;;;;4977142;28;20127;-72
2020/12/23 06:52:23;;;;;;;21.30;4.03;;;6.60;99.90;;;;;;4974151;28;20034;-71
2020/12/23 06:55:02;;;;;;;21.80;3.45;;;6.50;99.90;;;;;;4959753;28;20041;-65
2020/12/23 06:57:37;;;;;;;23.83;3.83;;;6.60;99.90;;;;;;4973856;28;20042;-70
2020/12/23 07:00:07;;;;;;;20.60;5.13;;;6.60;99.90;;;;;;4988698;28;20116;-72
2020/12/23 07:02:42;;;;;;;29.05;6.35;;;6.60;99.90;;;;;;4971668;28;20043;-72
2020/12/23 07:05:10;;;;;;;15.57;5.68;;;6.50;99.90;;;;;;4964555;28;20042;-71
2020/12/23 07:07:41;;;;;;;25.00;7.80;;;6.50;99.90;;;;;;4967772;28;20084;-71
2020/12/23 07:10:10;;;;;;;21.08;4.47;;;6.50;99.90;;;;;;4979034;28;20065;-71
2020/12/23 07:12:42;;;;;;;21.25;4.55;;;6.50;99.90;;;;;;4977188;28;20034;-72
2020/12/23 07:15:09;;;;;;;27.75;4.15;;;6.60;99.90;;;;;;4951242;28;20121;-71
2020/12/23 07:17:37;;;;;;;28.20;4.72;;;6.60;99.90;;;;;;4979055;28;20062;-73
2020/12/23 07:20:07;;;;;;;16.40;4.32;;;6.60;99.90;;;;;;4982253;28;20865;-73
2020/12/23 07:22:36;;;;;;;30.27;3.80;;;6.60;99.90;;;;;;4981314;28;20082;-73
2020/12/23 07:25:04;;;;;;;28.17;4.85;;;6.60;99.90;;;;;;4985179;28;20034;-73
2020/12/23 07:27:31;;;;;;;27.23;5.15;;;6.60;99.90;;;;;;4982271;28;20027;-73
2020/12/23 07:30:08;;;;;;;24.95;5.28;;;6.60;99.90;;;;;;4966067;28;20046;-73
2020/12/23 07:32:35;;;;;;;28.27;6.20;;;6.60;99.90;;;;;;4980977;28;20045;-73
2020/12/23 07:35:03;;;;;;;29.52;5.65;;;6.60;99.90;;;;;;4982357;28;20145;-73
2020/12/23 07:37:39;;;;;;;34.60;5.80;;;6.60;99.90;;;;;;4982401;28;20034;-73
2020/12/23 07:40:16;;;;;;;22.25;6.05;;;6.50;99.90;;;;;;4964970;28;20039;-73
2020/12/23 07:42:49;;;;;;;31.65;6.40;;;6.60;99.90;;;;;;4979765;28;20037;-72
2020/12/23 07:45:16;;;;;;;32.70;5.53;;;6.50;99.90;;;;;;4981020;28;20042;-73
2020/12/23 07:47:53;;;;;;;35.10;7.70;;;6.50;99.90;;;;;;4982793;28;20668;-72
2020/12/23 07:50:19;;;;;;;26.27;4.97;;;6.60;99.90;;;;;;4971339;28;20084;-72
2020/12/23 07:52:45;;;;;;;32.50;5.45;;;6.50;99.90;;;;;;4963183;28;20713;-72
2020/12/23 07:55:28;;;;;;;24.90;6.35;;;6.50;99.90;;;;;;4986830;28;20587;-72
2020/12/23 07:57:54;;;;;;;30.98;4.88;;;6.50;99.90;;;;;;4982267;28;20034;-72
2020/12/23 08:00:21;;;;;;;24.17;4.75;;;6.60;99.90;;;;;;4994554;28;20034;-72
2020/12/23 08:02:47;;;;;;;25.30;4.88;;;6.60;99.90;;;;;;4978424;28;20050;-72
2020/12/23 08:05:14;;;;;;;33.70;5.13;;;6.60;99.90;;;;;;4980356;28;20027;-72
2020/12/23 08:07:42;;;;;;;23.35;5.35;;;6.60;99.90;;;;;;4982615;28;20026;-71
2020/12/23 08:10:16;;;;;;;29.88;6.00;;;6.60;99.90;;;;;;4982562;28;20042;-72
2020/12/23 08:12:42;;;;;;;32.42;4.93;;;6.60;99.90;;;;;;4980790;28;20038;-72
2020/12/23 08:15:12;;;;;;;28.05;4.95;;;6.70;99.90;;;;;;4977331;28;20207;-72
2020/12/23 08:17:39;;;;;;;25.42;4.70;;;6.70;99.90;;;;;;4989077;28;20042;-72
2020/12/23 08:20:10;;;;;;;24.60;5.32;;;6.80;99.90;;;;;;4980540;28;20403;-72
2020/12/23 08:22:39;;;;;;;32.25;6.95;;;6.90;99.90;;;;;;4973279;28;20486;-72
2020/12/23 08:25:13;;;;;;;35.05;10.85;;;6.90;99.90;;;;;;4966758;28;20042;-72
2020/12/23 08:27:46;;;;;;;27.50;9.70;;;6.90;99.90;;;;;;4982048;28;20099;-72
2020/12/23 08:30:23;;;;;;;37.30;11.27;;;6.90;99.90;;;;;;4983105;28;20091;-73
2020/12/23 08:33:11;;;;;;;31.02;7.40;;;6.90;99.90;;;;;;4974388;28;20116;-73
2020/12/23 08:35:42;;;;;;;44.40;14.98;;;6.90;99.90;;;;;;4979172;28;20051;-74
2020/12/23 08:38:21;;;;;;;20.92;7.07;;;6.90;99.90;;;;;;4982490;28;20045;-73
2020/12/23 08:40:47;;;;;;;21.10;5.10;;;7.00;99.90;;;;;;4989511;28;20043;-73
2020/12/23 08:43:23;;;;;;;31.85;7.50;;;7.10;99.90;;;;;;4980764;28;20757;-73
2020/12/23 08:45:50;;;;;;;28.05;8.25;;;7.20;99.90;;;;;;4979509;28;20034;-73
2020/12/23 08:48:20;;;;;;;37.95;6.03;;;7.10;99.90;;;;;;4961288;28;20095;-73
2020/12/23 08:51:00;;;;;;;32.95;4.88;;;7.10;99.90;;;;;;4974421;28;20045;-73
2020/12/23 08:53:37;;;;;;;38.22;5.20;;;7.10;99.90;;;;;;4979099;28;20780;-71
2020/12/23 08:56:31;;;;;;;23.63;3.83;;;7.10;99.90;;;;;;4980154;28;20041;-73
2020/12/23 08:59:02;;;;;;;29.77;5.35;;;7.20;99.90;;;;;;4973823;28;20046;-72
2020/12/23 09:01:29;;;;;;;26.75;4.55;;;7.20;99.90;;;;;;4980403;28;20398;-73
2020/12/23 09:04:07;;;;;;;22.80;5.22;;;7.20;99.90;;;;;;4981219;28;20108;-73
2020/12/23 09:06:44;;;;;;;23.73;4.88;;;7.30;99.90;;;;;;4988894;28;20080;-73
2020/12/23 09:09:25;;;;;;;20.73;3.70;;;7.30;99.90;;;;;;4982310;28;20070;-73
2020/12/23 09:11:53;;;;;;;29.02;6.55;;;7.30;99.90;;;;;;4984884;28;20034;-73
2020/12/23 09:14:29;;;;;;;21.27;4.40;;;7.30;99.90;;;;;;4981162;28;20045;-73
2020/12/23 09:17:03;;;;;;;23.05;5.65;;;7.30;99.90;;;;;;4978613;28;20089;-71
2020/12/23 09:19:41;;;;;;;23.58;6.10;;;7.20;99.90;;;;;;4976450;28;20215;-73
2020/12/23 09:22:06;;;;;;;22.83;4.15;;;7.20;99.90;;;;;;4979640;28;20152;-73
2020/12/23 09:24:32;;;;;;;23.17;5.15;;;7.20;99.90;;;;;;4978800;28;20557;-73
2020/12/23 09:26:58;;;;;;;29.50;4.28;;;7.30;99.90;;;;;;4981212;28;20030;-73
2020/12/23 09:29:23;;;;;;;28.30;4.47;;;7.30;99.90;;;;;;4980894;28;20027;-74
2020/12/23 09:31:53;;;;;;;27.42;4.97;;;7.40;99.90;;;;;;4981340;28;20479;-74
2020/12/23 09:34:22;;;;;;;25.27;4.43;;;7.50;99.90;;;;;;4980933;28;20046;-74
2020/12/23 09:36:56;;;;;;;30.17;5.43;;;7.40;99.90;;;;;;4979627;28;20042;-74
2020/12/23 09:39:21;;;;;;;22.33;4.45;;;7.40;99.90;;;;;;4970470;28;20053;-73
2020/12/23 09:42:01;;;;;;;24.38;4.30;;;7.40;99.90;;;;;;4970143;28;20034;-73
2020/12/23 09:44:27;;;;;;;23.83;5.05;;;7.40;99.90;;;;;;4961917;28;20038;-73
2020/12/23 09:46:53;;;;;;;33.95;4.85;;;7.40;99.90;;;;;;4986276;28;20045;-73
2020/12/23 09:49:18;;;;;;;28.13;4.60;;;7.40;99.90;;;;;;4978361;28;20042;-73
2020/12/23 09:51:51;;;;;;;37.30;5.43;;;7.30;99.90;;;;;;4972107;28;20049;-74
2020/12/23 09:54:16;;;;;;;21.02;5.80;;;7.50;99.90;;;;;;4962682;28;20053;-73
2020/12/23 09:56:50;;;;;;;41.08;7.93;;;7.60;99.90;;;;;;4977548;28;20038;-74
2020/12/23 09:59:16;;;;;;;30.08;5.03;;;7.60;99.90;;;;;;4980362;28;20270;-74
2020/12/23 10:01:42;;;;;;;24.00;5.05;;;7.60;99.90;;;;;;4987239;28;20050;-73
2020/12/23 10:04:08;;;;;;;36.40;7.13;;;7.60;99.90;;;;;;4974642;28;20030;-73
2020/12/23 10:06:34;;;;;;;25.45;5.53;;;7.60;99.90;;;;;;4979274;28;20117;-73
2020/12/23 10:09:00;;;;;;;24.95;4.82;;;7.60;99.90;;;;;;4988753;28;20117;-73
2020/12/23 10:11:27;;;;;;;25.67;4.63;;;7.60;99.90;;;;;;4965159;28;20066;-73
2020/12/23 10:13:53;;;;;;;35.30;5.47;;;7.70;99.90;;;;;;4958374;28;20057;-73
2020/12/23 10:16:19;;;;;;;16.98;4.25;;;7.80;99.90;;;;;;4990068;28;20038;-73
2020/12/23 10:18:45;;;;;;;26.50;5.88;;;7.70;99.90;;;;;;4979202;28;20037;-74
2020/12/23 10:21:10;;;;;;;32.42;5.55;;;7.60;99.90;;;;;;4979331;28;20030;-73
2020/12/23 10:23:36;;;;;;;23.85;4.68;;;7.60;99.90;;;;;;4976529;28;20097;-73
2020/12/23 10:26:02;;;;;;;29.60;5.78;;;7.60;99.90;;;;;;4961435;28;20034;-73
2020/12/23 10:28:27;;;;;;;22.20;4.93;;;7.60;99.90;;;;;;4972223;28;20034;-73
2020/12/23 10:30:53;;;;;;;29.80;5.80;;;7.60;99.90;;;;;;4971981;28;20643;-73
2020/12/23 10:33:19;;;;;;;29.05;6.20;;;7.50;99.90;;;;;;4971414;28;20034;-73
2020/12/23 10:35:44;;;;;;;32.20;5.88;;;7.50;99.90;;;;;;4979096;28;21226;-73
2020/12/23 10:38:10;;;;;;;22.92;7.63;;;7.70;99.90;;;;;;4979869;28;20026;-73
2020/12/23 10:40:36;;;;;;;26.15;5.60;;;7.70;99.90;;;;;;4977843;28;20034;-73
2020/12/23 10:43:02;;;;;;;19.10;4.78;;;7.70;99.90;;;;;;4979949;28;20040;-71
2020/12/23 10:45:28;;;;;;;26.77;5.20;;;7.70;99.90;;;;;;4975025;28;20030;-73
2020/12/23 10:47:53;;;;;;;15.38;4.72;;;7.70;99.90;;;;;;4978420;28;20061;-73
2020/12/23 10:50:19;;;;;;;16.02;6.00;;;7.70;99.90;;;;;;4976409;28;20042;-73
2020/12/23 10:52:45;;;;;;;22.75;5.28;;;7.70;99.90;;;;;;4976863;28;20035;-72
2020/12/23 10:55:10;;;;;;;22.98;5.47;;;7.70;99.90;;;;;;4978672;28;20030;-73
2020/12/23 10:57:37;;;;;;;21.42;4.70;;;7.70;99.90;;;;;;4975861;28;20030;-73
2020/12/23 11:00:05;;;;;;;24.25;4.88;;;7.70;99.90;;;;;;4978039;28;20058;-72
2020/12/23 11:02:30;;;;;;;18.63;5.10;;;7.60;99.90;;;;;;4976879;28;20030;-73
2020/12/23 11:04:56;;;;;;;18.48;5.10;;;7.60;99.90;;;;;;4986984;28;20376;-73
2020/12/23 11:07:22;;;;;;;23.55;6.18;;;7.60;99.90;;;;;;4975455;28;20074;-74
2020/12/23 11:09:48;;;;;;;18.63;4.60;;;7.60;99.90;;;;;;4976927;28;20034;-73
2020/12/23 11:12:13;;;;;;;22.45;5.43;;;7.50;99.90;;;;;;4978134;28;20030;-73
2020/12/23 11:14:39;;;;;;;27.15;5.90;;;7.50;99.90;;;;;;4978742;28;20033;-73
2020/12/23 11:17:05;;;;;;;19.55;5.75;;;7.50;99.90;;;;;;4965879;28;20034;-72
2020/12/23 11:19:30;;;;;;;29.52;6.45;;;7.50;99.90;;;;;;4967404;28;20034;-75
2020/12/23 11:21:56;;;;;;;20.33;5.95;;;7.50;99.90;;;;;;4976351;28;20904;-74
2020/12/23 11:24:22;;;;;;;25.77;5.82;;;7.50;99.90;;;;;;4976374;28;20099;-74
2020/12/23 11:26:48;;;;;;;19.38;5.45;;;7.50;99.90;;;;;;4970064;28;20101;-74
2020/12/23 11:29:14;;;;;;;30.48;5.75;;;7.50;99.90;;;;;;4977755;28;20051;-73
2020/12/23 11:31:39;;;;;;;28.48;5.65;;;7.50;99.90;;;;;;4973553;28;20842;-73
2020/12/23 11:34:05;;;;;;;32.08;8.63;;;7.60;99.90;;;;;;4974501;28;20051;-72
2020/12/23 11:36:32;;;;;;;30.50;5.35;;;7.50;99.90;;;;;;4977483;28;20048;-75
2020/12/23 11:38:58;;;;;;;28.05;5.60;;;7.40;99.90;;;;;;4971918;28;20595;-75
2020/12/23 11:41:24;;;;;;;28.02;5.60;;;7.40;99.90;;;;;;4967178;28;20027;-74
2020/12/23 11:43:50;;;;;;;21.52;5.15;;;7.40;99.90;;;;;;4975406;28;20030;-74
2020/12/23 11:46:15;;;;;;;26.10;5.80;;;7.30;99.90;;;;;;4971553;28;20112;-72
2020/12/23 11:48:41;;;;;;;31.83;5.85;;;7.40;99.90;;;;;;4983403;28;20371;-75
2020/12/23 11:51:07;;;;;;;25.65;5.22;;;7.40;99.90;;;;;;4976493;28;20117;-73
2020/12/23 11:53:34;;;;;;;23.15;5.18;;;7.40;99.90;;;;;;4977552;28;20057;-72
2020/12/23 11:56:00;;;;;;;27.40;5.80;;;7.40;99.90;;;;;;4970092;28;20061;-76
2020/12/23 11:58:25;;;;;;;20.85;5.20;;;7.40;99.90;;;;;;4969275;28;20737;-75
2020/12/23 12:00:52;;;;;;;30.30;6.28;;;7.30;99.90;;;;;;4976199;28;20034;-75
2020/12/23 12:03:18;;;;;;;34.88;5.38;;;7.40;99.90;;;;;;4978266;28;20121;-75
2020/12/23 12:05:43;;;;;;;18.60;4.40;;;7.50;99.90;;;;;;4981310;28;20157;-74
2020/12/23 12:08:09;;;;;;;17.65;4.60;;;7.40;99.90;;;;;;4980526;28;20030;-74
2020/12/23 12:10:35;;;;;;;24.77;5.22;;;7.50;99.90;;;;;;4981270;28;20101;-76
2020/12/23 12:13:01;;;;;;;26.77;4.57;;;7.50;99.90;;;;;;4982020;28;20081;-74
2020/12/23 12:15:27;;;;;;;25.58;5.45;;;7.50;99.90;;;;;;4984255;28;20049;-72
2020/12/23 12:17:53;;;;;;;30.38;5.70;;;7.60;99.90;;;;;;4980059;28;20054;-76
2020/12/23 12:20:19;;;;;;;19.65;4.30;;;7.60;99.90;;;;;;4980191;28;20557;-76
2020/12/23 12:22:45;;;;;;;18.55;4.47;;;7.60;99.90;;;;;;4978192;28;20039;-76
2020/12/23 12:25:15;;;;;;;19.52;4.15;;;7.60;99.90;;;;;;4981037;28;20037;-76
2020/12/23 12:27:41;;;;;;;26.65;4.38;;;7.70;99.90;;;;;;4980964;28;20045;-76
2020/12/23 12:30:07;;;;;;;31.70;4.57;;;7.70;99.90;;;;;;4965173;28;20030;-75
2020/12/23 12:32:32;;;;;;;29.60;4.60;;;7.70;99.90;;;;;;4974855;28;20085;-76
2020/12/23 12:34:58;;;;;;;27.90;5.20;;;7.70;99.90;;;;;;4981033;28;20049;-76
2020/12/23 12:37:25;;;;;;;26.70;5.47;;;7.70;99.90;;;;;;4980371;28;20127;-76
2020/12/23 12:39:51;;;;;;;27.52;5.85;;;7.80;99.90;;;;;;4976021;28;20041;-75
2020/12/23 12:42:16;;;;;;;30.73;5.50;;;7.70;99.90;;;;;;4974199;28;20080;-79
2020/12/23 12:44:42;;;;;;;38.55;6.60;;;7.70;99.90;;;;;;4949552;28;20046;-75
2020/12/23 12:47:08;;;;;;;26.80;4.63;;;7.70;99.90;;;;;;4979875;28;20120;-75
2020/12/23 12:49:33;;;;;;;27.35;4.80;;;7.60;99.90;;;;;;4979097;28;20031;-75
2020/12/23 12:51:59;;;;;;;31.83;5.20;;;7.70;99.90;;;;;;4980215;28;20030;-75